Time;durP1;ratioP1;P1;durP2;ratioP2;P2;SDS_P1;SDS_P2;PMS_P1;PMS_P2;Temp;Humidity;BMP_temperature;BMP_pressure;BME280_temperature;BME280_humidity;BME280_pressure;Samples;Min_cycle;Max_cycle;Signal;HPM_P1;HPM_P2
2022/07/05 00:05:03;;;;;;;54.45;19.80;;;;;;;21.69;56.71;99497.91;6271254;22;20028;-96
2022/07/05 00:08:05;;;;;;;39.33;19.02;;;;;;;21.72;54.48;99499.09;6223042;22;20011;-95
2022/07/05 00:14:08;;;;;;;33.53;19.30;;;;;;;21.76;54.13;99505.53;6251105;22;20021;-96
2022/07/05 00:20:12;;;;;;;33.25;18.92;;;;;;;21.69;56.02;99513.78;6229157;22;20016;-96
2022/07/05 00:27:15;;;;;;;40.05;23.40;;;;;;;21.49;56.57;99518.75;6277421;22;20027;-96
2022/07/05 00:30:17;;;;;;;45.30;24.40;;;;;;;21.40;58.18;99521.06;6183787;22;20019;-96
2022/07/05 00:33:20;;;;;;;39.38;22.52;;;;;;;21.36;57.95;99521.03;6204857;22;20071;-96
2022/07/05 00:36:21;;;;;;;38.15;21.00;;;;;;;21.35;56.83;99522.19;6229137;22;20018;-96
2022/07/05 00:39:26;;;;;;;30.80;20.05;;;;;;;21.38;56.52;99518.66;6197658;22;20016;-96
2022/07/05 00:42:25;;;;;;;37.08;21.73;;;;;;;21.38;56.69;99515.88;6204895;22;20071;-96
2022/07/05 00:45:29;;;;;;;32.95;21.35;;;;;;;21.38;56.43;99517.84;6186252;22;20016;-95
2022/07/05 00:48:30;;;;;;;41.88;21.25;;;;;;;21.33;56.79;99522.56;6218101;22;20375;-96
2022/07/05 00:51:31;;;;;;;36.08;20.67;;;;;;;21.29;57.19;99516.16;6218815;22;20018;-96
2022/07/05 01:03:39;;;;;;;33.08;20.02;;;;;;;21.29;56.71;99530.06;6259105;22;20064;-93
2022/07/05 01:10:43;;;;;;;90.20;32.33;;;;;;;21.20;58.61;99537.88;6242698;22;20050;-91
2022/07/05 01:17:07;;;;;;;100.40;33.50;;;;;;;20.71;59.77;99479.72;6265912;22;20032;-93
2022/07/05 01:19:33;;;;;;;82.68;30.70;;;;;;;20.93;59.91;99522.47;6199923;22;20015;-96
2022/07/05 01:22:07;;;;;;;82.70;32.58;;;;;;;20.87;60.46;99520.00;6226082;22;20019;-92
2022/07/05 01:24:34;;;;;;;93.07;31.73;;;;;;;20.76;60.42;99498.81;6226340;22;20019;-93
2022/07/05 01:27:01;;;;;;;73.35;32.95;;;;;;;20.73;60.50;99488.44;6226291;22;20019;-93
2022/07/05 01:29:28;;;;;;;76.55;31.77;;;;;;;20.70;60.67;99486.44;6225833;22;20105;-93
2022/07/05 01:31:54;;;;;;;83.80;32.80;;;;;;;20.72;60.77;99501.53;6200747;22;20445;-93
2022/07/05 01:34:20;;;;;;;82.45;32.58;;;;;;;20.78;60.46;99511.16;6200798;22;20038;-94
2022/07/05 01:36:47;;;;;;;88.72;32.15;;;;;;;20.68;60.92;99492.38;6225445;22;20046;-93
2022/07/05 01:39:14;;;;;;;;;;;;;;;20.90;61.88;99526.81;6201111;22;20018;-93
2022/07/05 01:41:41;;;;;;;65.25;28.85;;;;;;;20.77;61.53;99509.56;6201216;22;19914;-95
2022/07/05 01:44:07;;;;;;;159.77;35.63;;;;;;;20.83;61.01;99512.81;6200131;22;20026;-93
2022/07/05 01:46:37;;;;;;;143.73;32.80;;;;;;;20.67;60.23;99481.66;6200115;22;20018;-93
2022/07/05 01:49:06;;;;;;;87.97;29.60;;;;;;;20.83;60.55;99507.25;6249158;22;20019;-91
2022/07/05 01:51:51;;;;;;;70.18;27.83;;;;;;;20.70;60.89;99489.22;6224791;22;20020;-93
2022/07/05 01:54:19;;;;;;;60.88;27.92;;;;;;;20.83;60.45;99498.94;6225137;22;20022;-91
2022/07/05 01:56:45;;;;;;;71.32;27.30;;;;;;;21.03;60.60;99514.25;6210008;22;20555;-94
2022/07/05 01:59:12;;;;;;;67.10;28.52;;;;;;;20.94;60.42;99490.72;6232471;22;20015;-95
2022/07/05 02:01:39;;;;;;;;;;;;;;;21.12;60.54;99516.72;6205678;22;20019;-94
2022/07/05 02:04:07;;;;;;;81.53;28.50;;;;;;;20.76;60.57;99455.19;6252362;22;20385;-94
2022/07/05 02:06:34;;;;;;;72.53;28.23;;;;;;;21.07;60.67;99503.19;6200588;22;20015;-94
2022/07/05 02:09:04;;;;;;;121.70;29.75;;;;;;;20.95;60.84;99482.00;6224951;22;20019;-94
2022/07/05 02:11:30;;;;;;;119.00;31.73;;;;;;;20.93;60.98;99472.44;6199224;22;20019;-93
2022/07/05 02:13:57;;;;;;;83.68;30.85;;;;;;;21.07;60.36;99490.09;6200674;22;20022;-95
2022/07/05 02:16:45;;;;;;;75.85;29.77;;;;;;;21.22;60.36;99513.28;6191925;23;20028;-94
2022/07/05 02:19:12;;;;;;;;;;;;;;;21.24;61.07;99526.81;6164904;23;20016;-93
2022/07/05 02:21:41;;;;;;;76.45;28.83;;;;;;;21.25;60.91;99529.19;6165798;23;19916;-94
2022/07/05 02:24:12;;;;;;;89.82;30.58;;;;;;;20.83;60.79;99451.69;6142088;23;20016;-94
2022/07/05 02:26:47;;;;;;;83.57;30.80;;;;;;;20.90;60.71;99457.34;6107250;23;20017;-94
2022/07/05 02:29:14;;;;;;;78.35;32.22;;;;;;;21.24;60.45;99508.16;6081893;23;20021;-94
2022/07/05 02:31:41;;;;;;;86.20;31.55;;;;;;;21.36;60.49;99526.59;6081418;23;20017;-94
2022/07/05 02:34:08;;;;;;;76.63;31.27;;;;;;;21.16;60.17;99497.31;6130311;23;20013;-94
2022/07/05 02:36:34;;;;;;;70.07;30.15;;;;;;;21.42;59.94;99538.94;6106861;23;20021;-95
2022/07/05 02:39:01;;;;;;;106.38;31.17;;;;;;;21.14;59.98;99486.59;6089025;23;20014;-94
2022/07/05 02:41:27;;;;;;;;;;;;;;;21.48;60.27;99528.28;6085063;23;20033;-93
2022/07/05 02:43:54;;;;;;;91.85;31.58;;;;;;;21.34;60.31;99513.06;6081187;23;19956;-96
2022/07/05 02:46:26;;;;;;;90.85;30.73;;;;;;;21.46;60.19;99527.88;6050517;23;20018;-94
2022/07/05 02:48:54;;;;;;;103.07;32.78;;;;;;;21.42;60.29;99515.91;6072581;23;20465;-94
2022/07/05 02:51:20;;;;;;;;;;;;;;;21.62;60.17;99538.75;6026111;23;20456;-95
2022/07/05 02:53:50;;;;;;;97.53;32.28;;;;;;;21.35;60.45;99492.38;6025152;23;19924;-94
2022/07/05 02:56:17;;;;;;;80.88;31.33;;;;;;;21.41;60.96;99495.63;6071671;23;20028;-93
2022/07/05 02:58:44;;;;;;;88.35;31.80;;;;;;;21.49;60.35;99511.22;6047569;23;20018;-94
2022/07/05 03:01:12;;;;;;;72.93;31.33;;;;;;;21.53;60.29;99522.41;6096484;23;20083;-93
2022/07/05 03:03:39;;;;;;;75.25;31.67;;;;;;;21.34;60.57;99488.03;6041948;23;20483;-94
2022/07/05 03:06:07;;;;;;;70.63;30.75;;;;;;;21.61;60.43;99523.25;6107771;23;20021;-94
2022/07/05 03:08:35;;;;;;;72.82;31.33;;;;;;;21.49;59.73;99505.66;6107369;23;20032;-94
2022/07/05 03:11:03;;;;;;;80.80;31.90;;;;;;;21.76;59.77;99536.94;6021293;23;20104;-93
2022/07/05 03:13:31;;;;;;;68.43;30.17;;;;;;;21.70;59.61;99527.31;6043973;23;20023;-95
2022/07/05 03:15:57;;;;;;;63.17;30.35;;;;;;;21.88;59.40;99538.63;5997108;23;20021;-94
2022/07/05 03:18:25;;;;;;;66.53;29.08;;;;;;;21.57;59.19;99495.41;6067079;23;20021;-96
2022/07/05 03:20:52;;;;;;;62.40;29.20;;;;;;;21.56;59.92;99482.69;6106938;23;20028;-94
2022/07/05 03:23:20;;;;;;;65.82;29.85;;;;;;;21.76;59.04;99508.31;6107830;23;20026;-95
2022/07/05 03:25:52;;;;;;;76.50;29.80;;;;;;;21.80;58.88;99506.34;6108722;23;20017;-94
2022/07/05 03:28:19;;;;;;;71.45;28.73;;;;;;;21.76;58.27;99497.19;6108216;23;20029;-94
2022/07/05 03:30:46;;;;;;;59.35;28.73;;;;;;;21.89;58.05;99508.81;6110870;23;20021;-94
2022/07/05 03:33:13;;;;;;;61.75;28.80;;;;;;;22.03;58.47;99529.22;6107227;23;20022;-94
2022/07/05 03:35:44;;;;;;;64.97;29.60;;;;;;;22.20;58.14;99540.91;6108939;23;20025;-95
2022/07/05 03:38:13;;;;;;;74.15;29.00;;;;;;;21.88;58.22;99482.16;6094107;23;20049;-93
2022/07/05 03:40:40;;;;;;;68.43;27.45;;;;;;;22.19;58.11;99520.63;6118069;23;20017;-94
2022/07/05 03:43:08;;;;;;;55.08;26.40;;;;;;;22.18;58.06;99501.50;6182229;23;20031;-93
2022/07/05 03:45:37;;;;;;;61.83;29.38;;;;;;;22.13;58.42;99483.16;6184383;23;20044;-94
2022/07/05 03:48:07;;;;;;;74.40;30.55;;;;;;;22.26;58.36;99497.59;6188288;23;20079;-92
2022/07/05 03:50:35;;;;;;;77.53;30.67;;;;;;;22.49;57.25;99523.22;6188815;23;20016;-94
2022/07/05 03:53:02;;;;;;;66.47;33.72;;;;;;;22.39;57.38;99495.31;6182085;23;20354;-94
2022/07/05 03:55:28;;;;;;;81.32;33.50;;;;;;;22.68;56.78;99535.25;6184537;23;20039;-93
2022/07/05 03:57:55;;;;;;;72.63;32.42;;;;;;;22.72;56.73;99541.66;6189136;23;20024;-94
2022/07/05 04:00:23;;;;;;;77.38;32.65;;;;;;;22.79;57.05;99540.91;6213611;23;20138;-93
2022/07/05 04:02:59;;;;;;;81.03;34.60;;;;;;;22.67;56.38;99511.38;6188526;23;20016;-92
2022/07/05 04:05:27;;;;;;;92.18;33.42;;;;;;;22.77;56.39;99518.19;6185638;23;20026;-93
2022/07/05 04:07:55;;;;;;;82.10;32.13;;;;;;;22.79;55.64;99515.81;6185675;23;20076;-94
2022/07/05 04:10:30;;;;;;;73.15;28.92;;;;;;;22.85;55.84;99505.91;6209533;23;20016;-95
2022/07/05 04:12:58;;;;;;;67.90;27.95;;;;;;;22.85;55.87;99501.13;6213493;23;20020;-93
2022/07/05 04:15:26;;;;;;;71.88;29.27;;;;;;;23.20;55.55;99545.09;6188227;23;20023;-93
2022/07/05 04:17:57;;;;;;;67.03;29.30;;;;;;;23.01;55.50;99508.38;6184538;23;20020;-94
2022/07/05 04:20:27;;;;;;;72.95;28.65;;;;;;;23.24;56.44;99530.38;6210548;23;20013;-92
2022/07/05 04:22:56;;;;;;;56.85;24.77;;;;;;;23.42;55.92;99545.97;6184859;23;20434;-92
2022/07/05 04:25:24;;;;;;;56.42;25.77;;;;;;;23.54;55.77;99563.53;6209100;23;20382;-92
2022/07/05 04:28:06;;;;;;;54.95;25.30;;;;;;;23.55;56.13;99542.84;6208590;23;20407;-92
2022/07/05 04:30:37;;;;;;;63.88;25.88;;;;;;;23.43;55.10;99521.66;6210175;23;20403;-93
2022/07/05 04:33:05;;;;;;;65.00;25.40;;;;;;;23.51;55.17;99517.72;6210377;23;20027;-94
2022/07/05 04:35:32;;;;;;;62.88;25.95;;;;;;;23.59;54.81;99522.09;6185754;23;20036;-93
2022/07/05 04:37:59;;;;;;;65.07;26.10;;;;;;;24.09;55.32;99580.03;6184735;23;20042;-94
2022/07/05 04:40:28;;;;;;;57.10;25.85;;;;;;;23.77;55.70;99512.97;6185975;23;20000;-94
2022/07/05 04:42:56;;;;;;;59.90;25.75;;;;;;;23.91;54.47;99521.38;6206303;23;20466;-93
2022/07/05 04:45:23;;;;;;;65.78;26.38;;;;;;;24.13;51.90;99542.50;6182998;23;20072;-93
2022/07/05 04:47:53;;;;;;;46.75;22.10;;;;;;;24.28;50.21;99559.28;6183466;23;20016;-91
2022/07/05 04:50:22;;;;;;;71.43;23.17;;;;;;;24.27;48.95;99540.91;6208335;23;20024;-92
2022/07/05 04:52:52;;;;;;;64.03;22.13;;;;;;;24.41;48.42;99549.31;6236150;23;20047;-92
2022/07/05 04:55:19;;;;;;;52.63;22.73;;;;;;;24.29;48.20;99511.38;6186778;23;20059;-93
2022/07/05 04:57:45;;;;;;;55.97;23.77;;;;;;;24.38;47.86;99522.16;6182604;23;20067;-93
2022/07/05 05:00:15;;;;;;;70.07;25.13;;;;;;;24.84;49.48;99577.19;6234589;23;20000;-93
2022/07/05 05:02:41;;;;;;;71.68;25.73;;;;;;;24.71;49.78;99540.47;6157736;23;20035;-93
2022/07/05 05:05:08;;;;;;;73.63;25.63;;;;;;;24.81;48.89;99545.25;6206776;23;20016;-86
2022/07/05 05:07:35;;;;;;;68.40;25.33;;;;;;;24.84;48.54;99536.06;6224538;23;20040;-87
2022/07/05 05:10:00;;;;;;;;;;;;;;;25.14;47.34;99567.56;6199942;23;20021;-91
2022/07/05 05:12:27;;;;;;;;;;;;;;;25.22;48.10;99569.09;6230934;23;19922;-87
2022/07/05 05:14:53;;;;;;;57.58;25.90;;;;;;;25.19;48.61;99553.13;6232252;23;19912;-88
2022/07/05 05:17:19;;;;;;;60.83;25.08;;;;;;;25.30;48.00;99548.31;6265713;22;20016;-87
2022/07/05 05:19:45;;;;;;;70.65;26.08;;;;;;;25.45;49.02;99551.81;6263873;22;20031;-89
2022/07/05 05:22:11;;;;;;;78.72;25.58;;;;;;;25.54;49.20;99547.34;6256076;22;20020;-86
2022/07/05 05:24:40;;;;;;;;;;;;;;;25.72;48.43;99557.63;6258836;22;20035;-87
2022/07/05 05:27:06;;;;;;;73.50;26.23;;;;;;;25.64;47.88;99540.09;6283040;22;19915;-87
2022/07/05 05:29:32;;;;;;;70.35;24.63;;;;;;;25.80;47.51;99552.81;6256539;22;20050;-90
2022/07/05 05:31:59;;;;;;;63.28;26.63;;;;;;;25.78;47.83;99540.00;6236960;22;20070;-89
2022/07/05 05:34:25;;;;;;;86.70;28.00;;;;;;;26.00;49.42;99565.88;6234441;22;20059;-86
2022/07/05 05:36:51;;;;;;;66.82;25.35;;;;;;;25.97;46.71;99563.91;6252051;22;20037;-89
2022/07/05 05:39:17;;;;;;;60.20;24.67;;;;;;;25.93;49.48;99559.56;6274925;22;20099;-88
2022/07/05 05:41:43;;;;;;;71.55;27.58;;;;;;;26.02;50.17;99566.25;6223468;22;20099;-93
2022/07/05 05:44:09;;;;;;;73.05;25.67;;;;;;;26.05;49.98;99558.25;6274628;22;20382;-87
2022/07/05 05:46:35;;;;;;;76.20;27.25;;;;;;;26.12;51.41;99558.19;6273375;22;20023;-85
2022/07/05 05:49:01;;;;;;;62.92;25.55;;;;;;;26.08;49.97;99555.41;6246704;22;20016;-92
2022/07/05 05:51:27;;;;;;;68.65;26.27;;;;;;;26.21;48.20;99566.94;6221180;22;20019;-86
2022/07/05 05:53:54;;;;;;;49.05;23.98;;;;;;;26.19;49.66;99558.13;6246885;22;20022;-88
2022/07/05 05:56:20;;;;;;;101.57;29.63;;;;;;;26.20;53.61;99568.94;6274045;22;20073;-90
2022/07/05 05:58:46;;;;;;;77.32;27.70;;;;;;;26.01;49.94;99541.47;6246893;22;20019;-87
2022/07/05 06:01:12;;;;;;;80.03;28.58;;;;;;;26.01;54.86;99552.69;6247443;22;20015;-89
2022/07/05 06:03:38;;;;;;;59.60;25.52;;;;;;;26.07;52.40;99556.63;6285910;22;20059;-87
2022/07/05 06:06:04;;;;;;;61.75;24.95;;;;;;;26.18;52.50;99553.75;6247535;22;20043;-90
2022/07/05 06:08:30;;;;;;;68.38;25.45;;;;;;;26.15;49.88;99546.94;6159827;23;20094;-89
2022/07/05 06:10:56;;;;;;;67.72;27.42;;;;;;;26.13;52.08;99540.19;6184814;23;20016;-91
2022/07/05 06:13:22;;;;;;;64.50;27.95;;;;;;;26.33;52.93;99560.81;6159855;23;20051;-88
2022/07/05 06:15:48;;;;;;;58.75;24.77;;;;;;;26.17;50.29;99529.72;6210282;23;20095;-91
2022/07/05 06:18:16;;;;;;;70.47;26.33;;;;;;;26.39;50.37;99552.75;6188546;23;20020;-95
2022/07/05 06:20:42;;;;;;;67.20;25.10;;;;;;;26.30;49.12;99525.22;6168909;23;20016;-96
2022/07/05 06:23:08;;;;;;;52.70;23.25;;;;;;;26.27;49.70;99506.41;6190162;23;20820;-96
2022/07/05 06:25:36;;;;;;;62.25;27.55;;;;;;;26.50;49.07;99545.06;6170029;23;20046;-96
2022/07/05 06:28:09;;;;;;;57.70;26.10;;;;;;;26.34;48.41;99503.53;6171132;23;20103;-95
2022/07/05 06:30:37;;;;;;;73.30;28.50;;;;;;;26.66;48.38;99536.91;6170979;23;20023;-95
2022/07/05 06:33:05;;;;;;;59.00;25.10;;;;;;;26.70;47.25;99534.06;6171320;23;20020;-95
2022/07/05 06:35:31;;;;;;;;;;;;;;;26.92;46.62;99555.06;6172962;23;20019;-96
2022/07/05 06:38:15;;;;;;;54.15;24.75;;;;;;;26.73;47.61;99512.81;6195132;23;19916;-95
2022/07/05 06:40:43;;;;;;;54.22;25.77;;;;;;;26.75;46.62;99497.13;6171287;23;20024;-94
2022/07/05 06:43:13;;;;;;;52.22;25.65;;;;;;;27.22;46.77;99552.69;6169547;23;20065;-94
2022/07/05 06:45:55;;;;;;;;;;;;;;;27.32;45.65;99557.41;6179775;23;20063;-94
2022/07/05 06:48:23;;;;;;;53.22;22.30;;;;;;;27.33;45.61;99551.34;6193724;23;20396;-94
2022/07/05 06:50:51;;;;;;;57.65;24.30;;;;;;;26.97;44.86;99480.03;6169870;23;20387;-94
2022/07/05 06:53:17;;;;;;;45.17;22.42;;;;;;;27.08;44.93;99492.69;6171712;23;20470;-93
2022/07/05 06:55:46;;;;;;;45.92;21.50;;;;;;;27.22;43.71;99500.19;6194586;23;20043;-93
2022/07/05 06:58:12;;;;;;;46.13;23.15;;;;;;;27.17;44.41;99476.19;6145944;23;20020;-94
2022/07/05 07:00:40;;;;;;;39.75;23.38;;;;;;;27.44;44.45;99520.31;6170240;23;20040;-95
2022/07/05 07:03:07;;;;;;;117.88;24.50;;;;;;;27.39;44.03;99510.38;6170856;23;20024;-91
2022/07/05 07:05:33;;;;;;;58.13;21.98;;;;;;;27.62;44.04;99514.47;6217062;23;20476;-90
2022/07/05 07:10:46;;;;;;;53.20;22.80;;;;;;;27.90;43.08;99532.91;6216556;23;20016;-87
2022/07/05 07:13:12;;;;;;;48.83;23.77;;;;;;;27.93;43.59;99531.28;6166211;23;20016;-89
2022/07/05 07:15:38;;;;;;;419.92;40.33;;;;;;;27.99;42.88;99526.75;6191387;23;20397;-90
2022/07/05 07:18:05;;;;;;;72.55;25.25;;;;;;;28.01;43.30;99525.13;6235613;23;20142;-87
2022/07/05 07:20:32;;;;;;;65.00;23.55;;;;;;;28.01;43.07;99516.69;6220367;23;20017;-90
2022/07/05 07:22:59;;;;;;;49.90;25.42;;;;;;;28.10;42.21;99518.94;6215771;23;20031;-89
2022/07/05 07:25:25;;;;;;;46.72;23.20;;;;;;;28.22;41.45;99529.56;6214256;23;20024;-93
2022/07/05 07:27:54;;;;;;;42.80;23.27;;;;;;;28.32;43.14;99539.06;6215018;23;20103;-92
2022/07/05 07:30:40;;;;;;;45.20;22.95;;;;;;;28.35;42.83;99521.31;6216902;23;20358;-87
2022/07/05 07:33:06;;;;;;;49.65;24.02;;;;;;;28.36;42.24;99511.66;6217492;23;20027;-92
2022/07/05 07:35:32;;;;;;;66.82;24.25;;;;;;;28.52;41.34;99522.25;6216590;23;20458;-91
2022/07/05 07:37:58;;;;;;;49.75;23.77;;;;;;;28.47;41.63;99512.28;6190173;23;20016;-96
2022/07/05 07:40:24;;;;;;;47.13;24.27;;;;;;;28.67;41.08;99532.00;6190299;23;20016;-92
2022/07/05 07:42:50;;;;;;;46.97;24.52;;;;;;;28.70;41.70;99524.72;6217499;23;20023;-88
2022/07/05 07:45:16;;;;;;;44.25;23.08;;;;;;;28.73;40.95;99521.03;6217226;23;20020;-90
2022/07/05 07:47:44;;;;;;;56.40;23.10;;;;;;;28.70;40.64;99499.41;6215292;23;20040;-90
2022/07/05 07:50:10;;;;;;;42.45;23.45;;;;;;;28.88;40.19;99515.94;6213819;23;20053;-90
2022/07/05 07:52:37;;;;;;;;;;;;;;;28.97;40.46;99524.56;6215238;23;20021;-90
2022/07/05 07:55:05;;;;;;;45.65;23.50;;;;;;;28.89;40.88;99511.88;6213517;23;20246;-89
2022/07/05 07:57:32;;;;;;;40.72;23.88;;;;;;;28.95;40.40;99519.41;6267494;22;20393;-94
2022/07/05 07:59:58;;;;;;;44.47;26.20;;;;;;;28.90;39.05;99505.81;6215982;23;20509;-88
2022/07/05 08:02:24;;;;;;;;;;;;;;;29.06;39.12;99526.84;6214961;23;20020;-88
2022/07/05 08:04:50;;;;;;;43.50;24.92;;;;;;;29.09;40.44;99528.81;6190009;23;19916;-88
2022/07/05 08:07:18;;;;;;;55.05;25.30;;;;;;;28.98;40.34;99514.94;6217448;23;20027;-92
2022/07/05 08:09:44;;;;;;;48.00;24.58;;;;;;;28.93;39.84;99488.06;6191827;23;20016;-88
2022/07/05 08:12:10;;;;;;;;;;;;;;;29.20;39.13;99523.72;6218607;23;20024;-90
2022/07/05 08:14:36;;;;;;;56.17;26.98;;;;;;;29.14;39.03;99509.38;6216585;23;20395;-87
2022/07/05 08:17:02;;;;;;;52.65;27.10;;;;;;;29.21;40.01;99511.25;6246433;22;20016;-88
2022/07/05 08:22:13;;;;;;;49.17;25.02;;;;;;;29.17;38.52;99505.72;6250824;22;20020;-87
2022/07/05 08:24:40;;;;;;;56.70;27.65;;;;;;;29.32;39.04;99528.69;6248839;22;20027;-87
2022/07/05 08:27:06;;;;;;;60.40;27.58;;;;;;;29.32;38.81;99519.47;6247608;22;20099;-90
2022/07/05 08:29:32;;;;;;;;;;;;;;;29.37;39.27;99521.75;6262432;22;20026;-92
2022/07/05 08:31:59;;;;;;;59.10;26.42;;;;;;;29.37;38.33;99516.94;6215750;22;19937;-91
2022/07/05 08:34:25;;;;;;;525.38;44.38;;;;;;;29.16;38.46;99467.50;6212765;22;20069;-94
2022/07/05 08:36:51;;;;;;;63.90;26.60;;;;;;;29.35;38.25;99487.63;6206109;22;20026;-93
2022/07/05 08:39:19;;;;;;;70.72;26.30;;;;;;;29.49;39.06;99492.91;6203152;22;20016;-91
2022/07/05 08:41:51;;;;;;;50.05;26.23;;;;;;;29.67;35.49;99507.41;6228287;22;20024;-94
2022/07/05 08:44:22;;;;;;;47.45;25.95;;;;;;;29.66;37.49;99505.81;6202779;22;20486;-90
2022/07/05 08:46:53;;;;;;;42.67;24.80;;;;;;;29.81;37.80;99513.94;6225627;22;20349;-93
2022/07/05 08:49:22;;;;;;;41.15;24.38;;;;;;;29.86;38.04;99502.13;6193764;22;20023;-94
2022/07/05 08:51:49;;;;;;;41.15;24.65;;;;;;;29.81;38.31;99485.75;6164054;23;20020;-91
2022/07/05 08:54:17;;;;;;;49.88;24.90;;;;;;;29.76;38.31;99470.16;6187909;23;20027;-93
2022/07/05 08:57:11;;;;;;;51.38;25.13;;;;;;;30.11;38.09;99498.69;6189715;23;20021;-95
2022/07/05 09:03:11;;;;;;;110.30;27.80;;;;;;;29.99;37.15;99469.19;6054357;23;20019;-92
2022/07/05 09:05:45;;;;;;;55.83;27.05;;;;;;;30.10;35.80;99478.19;6189844;23;20024;-93
2022/07/05 09:08:15;;;;;;;53.58;26.98;;;;;;;30.01;37.53;99447.00;6164358;23;20016;-93
2022/07/05 09:12:23;;;;;;;65.22;28.05;;;;;;;30.51;36.76;99502.09;6191520;23;20013;-96
2022/07/05 09:19:17;;;;;;;;;;;;;;;;;;;;;
2022/07/05 09:23:19;;;;;;;;;;;;;;;;;;;;;
2022/07/05 09:26:42;;;;;;;49.85;27.35;;;;;;;30.34;36.61;99446.97;6042464;23;20019;-95
2022/07/05 09:29:10;;;;;;;50.53;27.13;;;;;;;30.49;35.82;99465.06;6012453;23;20054;-92
2022/07/05 09:31:39;;;;;;;53.75;27.90;;;;;;;30.32;35.17;99421.22;6037118;23;20091;-93
2022/07/05 09:34:13;;;;;;;77.18;27.25;;;;;;;30.38;35.82;99422.25;6160360;23;20454;-90
2022/07/05 09:37:01;;;;;;;62.67;27.02;;;;;;;30.49;35.11;99450.94;6186896;23;20020;-90
2022/07/05 09:39:33;;;;;;;55.78;28.73;;;;;;;30.68;35.60;99480.25;6162921;23;20020;-89
2022/07/05 09:42:14;;;;;;;52.58;27.77;;;;;;;30.71;36.36;99478.59;6187399;23;20063;-89
2022/07/05 09:44:46;;;;;;;57.92;28.27;;;;;;;30.73;36.71;99467.63;6138182;23;20020;-89
2022/07/05 09:47:14;;;;;;;61.47;28.52;;;;;;;30.75;36.16;99451.03;6186861;23;20017;-88
2022/07/05 09:50:13;;;;;;;54.30;27.13;;;;;;;31.00;35.43;99472.94;6163614;23;20062;-94
2022/07/05 09:57:40;;;;;;;48.10;25.90;;;;;;;30.71;35.44;99403.16;6234565;22;20038;-92
2022/07/05 10:00:20;;;;;;;42.97;27.27;;;;;;;30.73;35.65;99399.88;6198281;22;20015;-93
2022/07/05 10:02:51;;;;;;;70.97;33.15;;;;;;;30.90;33.95;99407.09;6199227;22;20058;-90
2022/07/05 10:05:26;;;;;;;71.60;30.63;;;;;;;31.06;35.27;99448.53;6275081;22;20015;-91
2022/07/05 10:07:53;;;;;;;47.45;27.15;;;;;;;31.17;35.63;99459.50;6247608;22;20020;-87
2022/07/05 10:10:22;;;;;;;43.83;27.08;;;;;;;31.03;34.29;99432.50;6247435;22;20026;-91
2022/07/05 10:12:52;;;;;;;49.92;27.15;;;;;;;31.05;34.27;99442.09;6247794;22;20098;-87
2022/07/05 10:15:27;;;;;;;46.38;27.08;;;;;;;30.82;34.87;99431.88;6248497;22;20453;-87
2022/07/05 10:18:03;;;;;;;63.85;26.88;;;;;;;30.92;35.10;99443.31;6246824;22;20020;-93
2022/07/05 10:20:43;;;;;;;47.22;26.30;;;;;;;31.02;34.27;99430.91;6222301;22;20466;-87
2022/07/05 10:23:14;;;;;;;48.38;27.10;;;;;;;31.06;35.47;99417.47;6274947;22;20433;-89
2022/07/05 10:25:43;;;;;;;49.95;26.60;;;;;;;31.04;34.20;99401.00;6222355;22;20015;-88
2022/07/05 10:28:10;;;;;;;41.25;25.88;;;;;;;31.21;34.42;99432.72;6247365;22;20019;-87
2022/07/05 10:30:40;;;;;;;41.92;27.58;;;;;;;30.98;34.30;99438.69;6247793;22;20404;-92
2022/07/05 10:33:07;;;;;;;52.28;29.05;;;;;;;30.85;34.92;99421.75;6197288;22;20102;-88
2022/07/05 10:35:34;;;;;;;54.75;32.55;;;;;;;30.96;33.87;99407.28;6274822;22;20022;-87
2022/07/05 10:38:05;;;;;;;87.25;41.60;;;;;;;30.85;33.77;99394.28;6247596;22;20098;-87
2022/07/05 10:40:33;;;;;;;76.65;30.65;;;;;;;31.18;33.90;99419.50;6222161;22;20011;-88
2022/07/05 10:43:01;;;;;;;48.85;25.58;;;;;;;31.07;34.22;99397.25;6222366;22;20694;-88
2022/07/05 10:45:39;;;;;;;41.60;27.08;;;;;;;30.95;34.27;99385.97;6274421;22;20016;-89
2022/07/05 10:48:20;;;;;;;46.80;28.38;;;;;;;30.82;35.05;99369.78;6247499;22;20102;-86
2022/07/05 10:50:49;;;;;;;45.65;26.42;;;;;;;31.02;34.93;99383.69;6247514;22;20051;-94
2022/07/05 10:53:52;;;;;;;64.88;28.50;;;;;;;30.95;33.48;99375.44;6247778;22;20043;-87
2022/07/05 10:56:18;;;;;;;43.83;26.13;;;;;;;30.98;34.04;99394.31;6223225;22;20388;-88
2022/07/05 10:58:49;;;;;;;38.90;26.50;;;;;;;30.97;34.62;99403.25;6250148;22;20016;-87
2022/07/05 11:01:18;;;;;;;50.88;27.42;;;;;;;30.88;34.27;99403.91;6278563;22;20043;-88
2022/07/05 11:04:18;;;;;;;58.13;27.77;;;;;;;30.62;34.15;99369.97;6197634;22;20357;-88
2022/07/05 11:06:51;;;;;;;39.47;25.95;;;;;;;30.81;34.50;99398.47;6214508;22;20035;-90
2022/07/05 11:09:22;;;;;;;38.42;26.90;;;;;;;30.71;34.64;99393.91;6210261;23;20036;-85
2022/07/05 11:11:51;;;;;;;39.13;26.00;;;;;;;30.80;33.96;99405.38;6211377;23;20052;-90
2022/07/05 11:14:20;;;;;;;44.17;26.90;;;;;;;30.83;35.11;99404.47;6186178;23;20048;-89
2022/07/05 11:16:48;;;;;;;60.88;27.60;;;;;;;30.45;34.95;99360.00;6211362;23;20017;-89
2022/07/05 11:19:20;;;;;;;38.78;26.48;;;;;;;30.54;34.07;99371.44;6185752;23;20024;-87
2022/07/05 11:22:07;;;;;;;40.20;26.10;;;;;;;30.53;33.98;99383.97;6187616;23;20016;-89
2022/07/05 11:24:37;;;;;;;63.20;26.48;;;;;;;30.50;35.26;99396.13;6213415;23;20020;-89
2022/07/05 11:27:13;;;;;;;55.20;28.55;;;;;;;30.38;34.66;99379.94;6212759;23;20013;-91
2022/07/05 11:29:41;;;;;;;58.60;28.20;;;;;;;30.25;36.89;99388.38;6212968;23;20421;-88
2022/07/05 11:32:10;;;;;;;359.52;38.80;;;;;;;30.36;34.25;99431.16;6162879;23;20377;-87
2022/07/05 11:34:38;;;;;;;75.20;30.90;;;;;;;29.73;35.43;99398.59;6213860;23;20017;-94
2022/07/05 11:37:21;;;;;;;96.63;31.52;;;;;;;29.49;37.03;99437.38;6187327;23;20044;-87
2022/07/05 11:40:09;;;;;;;149.43;34.58;;;;;;;28.95;38.46;99446.22;6188794;23;20109;-95
2022/07/05 11:42:47;;;;;;;160.38;34.83;;;;;;;28.54;39.66;99452.28;6187577;23;20034;-85
2022/07/05 11:45:16;;;;;;;135.82;32.80;;;;;;;28.38;40.51;99435.28;6212224;23;20020;-86
2022/07/05 11:47:44;;;;;;;186.90;37.10;;;;;;;28.34;41.04;99412.88;6187605;23;20009;-89
2022/07/05 11:50:13;;;;;;;147.13;34.05;;;;;;;28.59;41.56;99434.91;6213776;23;20095;-85
2022/07/05 11:52:40;;;;;;;130.60;34.03;;;;;;;28.52;42.74;99444.28;6216724;23;20083;-87
2022/07/05 11:55:10;;;;;;;157.32;36.42;;;;;;;28.27;43.28;99427.06;6215435;23;20577;-85
2022/07/05 11:57:48;;;;;;;134.73;33.60;;;;;;;28.45;42.31;99443.66;6213896;23;20113;-85
2022/07/05 12:00:32;;;;;;;139.38;36.03;;;;;;;28.42;42.92;99441.69;6260138;22;20011;-86
2022/07/05 12:02:59;;;;;;;214.07;40.67;;;;;;;28.40;43.86;99442.13;6249786;22;20107;-89
2022/07/05 12:05:32;;;;;;;121.78;33.70;;;;;;;28.20;43.90;99433.63;6226397;22;20098;-87
2022/07/05 12:07:59;;;;;;;126.15;37.08;;;;;;;28.03;44.32;99426.31;6229350;22;20103;-89
2022/07/05 12:13:09;;;;;;;233.32;41.25;;;;;;;27.95;45.01;99431.28;6253023;22;20023;-90
2022/07/05 12:15:37;;;;;;;145.80;36.97;;;;;;;28.32;45.33;99440.66;6279369;22;20015;-86
2022/07/05 12:18:05;;;;;;;98.22;34.42;;;;;;;28.53;45.95;99433.84;6225706;22;20069;-94
2022/07/05 12:20:39;;;;;;;126.88;36.83;;;;;;;28.49;45.08;99422.66;6284535;22;20022;-85
2022/07/05 12:23:06;;;;;;;109.50;34.65;;;;;;;28.54;46.12;99421.34;6283652;22;20050;-84
2022/07/05 12:25:34;;;;;;;115.57;36.38;;;;;;;28.54;45.72;99424.16;6275646;22;20019;-83
2022/07/05 12:28:05;;;;;;;104.97;34.95;;;;;;;28.53;45.98;99425.41;6277036;22;20094;-84
2022/07/05 12:30:32;;;;;;;93.88;34.83;;;;;;;28.53;46.20;99426.19;6278532;22;20012;-96
2022/07/05 12:33:12;;;;;;;78.28;32.00;;;;;;;28.39;45.49;99403.16;6277367;22;20043;-85
2022/07/05 12:35:43;;;;;;;81.85;34.85;;;;;;;28.59;45.04;99428.50;6278196;22;20022;-85